createdAt,value
2017-12-21T07:21:07.976Z,8.50
2017-12-21T07:23:39.872Z,8.50
2017-12-21T07:26:11.751Z,8.50
2017-12-21T07:28:44.403Z,8.50
2017-12-21T07:31:16.316Z,8.50
2017-12-21T07:33:48.213Z,8.60
2017-12-21T07:36:20.148Z,8.60
2017-12-21T07:38:52.015Z,8.60
2017-12-21T07:41:23.925Z,8.60
2017-12-21T07:43:56.824Z,8.60
2017-12-21T07:46:28.715Z,8.60
2017-12-21T07:49:00.588Z,8.60
2017-12-21T07:51:32.480Z,8.60
2017-12-21T07:54:05.117Z,8.70
2017-12-21T07:56:37.007Z,8.60
2017-12-21T07:59:10.488Z,8.60
2017-12-21T08:01:43.151Z,8.60
2017-12-21T08:04:15.011Z,8.60
2017-12-21T08:06:46.911Z,8.60
2017-12-21T08:09:18.792Z,8.60
2017-12-21T08:11:50.687Z,8.60
2017-12-21T08:14:22.571Z,8.60
2017-12-21T08:16:54.459Z,8.60
2017-12-21T08:19:27.095Z,8.60
2017-12-21T08:21:58.991Z,8.60
2017-12-21T08:24:30.873Z,8.60
2017-12-21T08:27:03.531Z,8.60
2017-12-21T08:29:36.172Z,8.60
2017-12-21T08:32:08.064Z,8.60
2017-12-21T08:34:39.964Z,8.60
2017-12-21T08:37:11.848Z,8.70
2017-12-21T08:39:43.719Z,8.60
2017-12-21T08:42:15.620Z,8.60
2017-12-21T08:44:48.252Z,8.60
2017-12-21T08:47:20.148Z,8.60
2017-12-21T08:49:52.025Z,8.70
2017-12-21T08:52:24.724Z,8.70
2017-12-21T08:54:57.343Z,8.70
2017-12-21T08:57:29.232Z,8.70
2017-12-21T09:00:01.867Z,8.80
2017-12-21T09:02:33.761Z,8.70
2017-12-21T09:05:05.641Z,8.80
2017-12-21T09:07:38.305Z,8.80
2017-12-21T09:10:10.968Z,8.80
2017-12-21T09:12:42.852Z,8.80
2017-12-21T09:15:15.484Z,8.90
2017-12-21T09:17:47.367Z,8.80
2017-12-21T09:20:19.240Z,8.80
2017-12-21T09:22:51.898Z,8.90
2017-12-21T09:25:23.772Z,8.90
2017-12-21T09:27:55.661Z,8.90
2017-12-21T09:30:27.536Z,8.90
2017-12-21T09:32:59.428Z,9.00
2017-12-21T09:35:31.303Z,9.00
2017-12-21T09:38:03.233Z,9.00
2017-12-21T09:40:35.831Z,9.00
2017-12-21T09:43:08.044Z,9.00
2017-12-21T09:45:39.916Z,9.10
2017-12-21T09:48:11.819Z,9.10
2017-12-21T09:50:43.707Z,9.10
2017-12-21T09:53:16.364Z,9.00
2017-12-21T09:55:48.240Z,9.00
2017-12-21T09:58:20.132Z,9.10
2017-12-21T10:00:52.003Z,9.10
2017-12-21T10:03:23.894Z,9.10
2017-12-21T10:05:55.772Z,9.10
2017-12-21T10:08:27.967Z,9.10
2017-12-21T10:10:59.843Z,9.10
2017-12-21T10:13:31.740Z,9.10
2017-12-21T10:16:03.623Z,9.20
2017-12-21T10:18:35.504Z,9.20
2017-12-21T10:21:08.151Z,9.20
2017-12-21T10:23:40.047Z,9.20
2017-12-21T10:26:11.916Z,9.20
2017-12-21T10:28:43.804Z,9.20
2017-12-21T10:31:15.693Z,9.20
2017-12-21T10:33:47.584Z,9.20
2017-12-21T10:36:20.224Z,9.30
2017-12-21T10:38:52.127Z,9.20
2017-12-21T10:41:24.760Z,9.30
2017-12-21T10:43:56.648Z,9.30
2017-12-21T10:46:29.288Z,9.40
2017-12-21T10:49:01.187Z,9.40
2017-12-21T10:51:33.819Z,9.40
2017-12-21T10:54:05.711Z,9.40
2017-12-21T10:56:37.595Z,9.40
2017-12-21T10:59:09.479Z,9.40
2017-12-21T11:01:41.352Z,9.40
2017-12-21T11:04:13.241Z,9.40
2017-12-21T11:06:45.112Z,9.40
2017-12-21T11:09:17.004Z,9.40
2017-12-21T11:11:48.871Z,9.40
2017-12-21T11:14:20.764Z,9.40
2017-12-21T11:16:52.640Z,9.40
2017-12-21T11:19:24.544Z,9.50
2017-12-21T11:21:56.420Z,9.50
2017-12-21T11:24:28.327Z,9.50
2017-12-21T11:27:00.200Z,9.50
2017-12-21T11:29:32.855Z,9.60
2017-12-21T11:32:04.817Z,9.60
2017-12-21T11:34:36.825Z,9.60
2017-12-21T11:37:09.458Z,9.60
2017-12-21T11:39:41.356Z,9.60
2017-12-21T11:42:14.000Z,9.60
2017-12-21T11:44:45.886Z,9.60
2017-12-21T11:47:18.531Z,9.60
2017-12-21T11:49:51.408Z,9.60
2017-12-21T11:52:23.283Z,9.60
2017-12-21T11:54:55.171Z,9.60
2017-12-21T11:57:27.804Z,9.60
2017-12-21T11:59:59.722Z,9.60
2017-12-21T12:02:32.364Z,9.60
2017-12-21T12:05:04.251Z,9.60
2017-12-21T12:07:36.892Z,9.60
2017-12-21T12:10:08.786Z,9.60
2017-12-21T12:12:41.430Z,9.60
2017-12-21T12:15:13.331Z,9.60
2017-12-21T12:17:45.968Z,9.60
2017-12-21T12:20:17.906Z,9.60
2017-12-21T12:22:50.512Z,9.60
2017-12-21T12:25:22.400Z,9.60
2017-12-21T12:27:55.039Z,9.60
2017-12-21T12:30:26.927Z,9.60
2017-12-21T12:32:59.123Z,9.70
2017-12-21T12:35:31.031Z,9.70
2017-12-21T12:38:02.908Z,9.70
2017-12-21T12:40:34.799Z,9.80
2017-12-21T12:43:06.676Z,9.80
2017-12-21T12:45:38.592Z,9.80
2017-12-21T12:48:10.457Z,9.80
2017-12-21T12:50:42.351Z,9.80
2017-12-21T12:53:14.244Z,9.90
2017-12-21T12:55:46.123Z,9.90
2017-12-21T12:58:18.000Z,9.90
2017-12-21T13:00:50.675Z,9.90
2017-12-21T13:03:22.540Z,9.90
2017-12-21T13:05:55.207Z,10.00
2017-12-21T13:08:27.124Z,10.00
2017-12-21T13:10:59.012Z,10.00
2017-12-21T13:13:30.921Z,10.00
2017-12-21T13:16:03.576Z,9.90
2017-12-21T13:18:36.216Z,9.90
2017-12-21T13:21:08.103Z,9.90
2017-12-21T13:23:40.200Z,9.90
2017-12-21T13:26:12.099Z,9.90
2017-12-21T13:28:43.963Z,9.90
2017-12-21T13:31:15.868Z,9.90
2017-12-21T13:33:48.507Z,9.90
2017-12-21T13:36:20.395Z,9.80
2017-12-21T13:38:52.268Z,9.90
2017-12-21T13:41:24.919Z,9.80
2017-12-21T13:43:56.792Z,9.80
2017-12-21T13:46:28.687Z,9.80
2017-12-21T13:49:00.555Z,9.80
2017-12-21T13:51:32.452Z,9.80
2017-12-21T13:54:04.327Z,9.80
2017-12-21T13:56:36.227Z,9.80
2017-12-21T13:59:08.096Z,9.80
2017-12-21T14:01:39.985Z,9.80
2017-12-21T14:04:11.856Z,9.80
2017-12-21T14:06:43.756Z,9.80
2017-12-21T14:09:16.478Z,9.90
2017-12-21T14:11:48.378Z,9.80
2017-12-21T14:14:21.021Z,9.90
2017-12-21T14:16:52.957Z,9.90
2017-12-21T14:19:24.820Z,9.90
2017-12-21T14:21:56.712Z,9.90
2017-12-21T14:24:28.587Z,9.90
2017-12-21T14:27:00.479Z,9.90
2017-12-21T14:29:32.356Z,9.90
2017-12-21T14:32:04.257Z,9.90
2017-12-21T14:34:36.127Z,9.90
2017-12-21T14:37:08.017Z,9.90
2017-12-21T14:39:39.888Z,9.90
2017-12-21T14:42:11.785Z,9.90
2017-12-21T14:44:43.669Z,9.90
2017-12-21T14:47:15.553Z,9.90
2017-12-21T14:49:48.312Z,9.90
2017-12-21T14:52:20.255Z,9.90
2017-12-21T14:54:52.136Z,9.90
2017-12-21T14:57:24.328Z,9.90
2017-12-21T14:59:56.202Z,9.90
2017-12-21T15:02:28.102Z,9.90
2017-12-21T15:04:59.967Z,9.90
2017-12-21T15:07:31.861Z,9.90
2017-12-21T15:10:03.818Z,9.90
2017-12-21T15:12:36.482Z,9.90
2017-12-21T15:15:08.352Z,9.80
2017-12-21T15:17:41.010Z,9.80
2017-12-21T15:20:12.892Z,9.80
2017-12-21T15:22:45.539Z,9.80
2017-12-21T15:25:17.411Z,9.80
2017-12-21T15:27:49.307Z,9.80
2017-12-21T15:30:21.180Z,9.70
2017-12-21T15:32:53.073Z,9.70
2017-12-21T15:35:24.944Z,9.70
2017-12-21T15:37:56.843Z,9.70
2017-12-21T15:40:29.480Z,9.70
2017-12-21T15:43:01.377Z,9.70
2017-12-21T15:45:34.013Z,9.70
2017-12-21T15:48:05.900Z,9.70
2017-12-21T15:50:38.539Z,9.70
2017-12-21T15:53:10.431Z,9.70
2017-12-21T15:55:42.322Z,9.70
2017-12-21T15:58:14.971Z,9.70
2017-12-21T16:00:46.848Z,9.70
2017-12-21T16:03:19.495Z,9.80
2017-12-21T16:05:51.376Z,9.70
2017-12-21T16:08:23.266Z,9.80
2017-12-21T16:10:55.160Z,9.70
2017-12-21T16:13:27.048Z,9.70
2017-12-21T16:15:58.920Z,9.70
2017-12-21T16:18:31.602Z,9.70
2017-12-21T16:21:04.236Z,9.70
2017-12-21T16:23:36.129Z,9.70
2017-12-21T16:26:08.052Z,9.70
2017-12-21T16:28:39.939Z,9.70
2017-12-21T16:31:11.823Z,9.70
2017-12-21T16:33:44.492Z,9.70
2017-12-21T16:36:16.579Z,9.70
2017-12-21T16:38:48.481Z,9.70
2017-12-21T16:41:20.347Z,9.70
2017-12-21T16:43:52.260Z,9.70
2017-12-21T16:46:24.920Z,9.70
2017-12-21T16:48:57.577Z,9.70
2017-12-21T16:51:29.449Z,9.70
2017-12-21T16:54:01.365Z,9.70
2017-12-21T16:56:33.251Z,9.70
2017-12-21T16:59:05.140Z,9.70
2017-12-21T17:01:37.012Z,9.70
2017-12-21T17:04:09.670Z,9.70
2017-12-21T17:06:41.545Z,9.70
2017-12-21T17:09:14.450Z,9.70
2017-12-21T17:11:46.339Z,9.70
2017-12-21T17:14:18.220Z,9.70
2017-12-21T17:16:50.108Z,9.70
2017-12-21T17:19:22.744Z,9.80
2017-12-21T17:21:54.632Z,9.70
2017-12-21T17:24:26.504Z,9.80
2017-12-21T17:26:59.160Z,9.80
2017-12-21T17:29:31.030Z,9.70
2017-12-21T17:32:02.912Z,9.70
2017-12-21T17:34:35.547Z,9.70
2017-12-21T17:37:07.471Z,9.70
2017-12-21T17:39:39.347Z,9.80
2017-12-21T17:42:11.235Z,9.80
2017-12-21T17:44:43.111Z,9.80
2017-12-21T17:47:14.999Z,9.80
2017-12-21T17:49:46.868Z,9.80
2017-12-21T17:52:19.023Z,9.80
2017-12-21T17:54:50.895Z,9.80
2017-12-21T17:57:22.836Z,9.80
2017-12-21T17:59:55.472Z,9.70
2017-12-21T18:02:27.411Z,9.70
2017-12-21T18:04:59.309Z,9.70
2017-12-21T18:07:31.196Z,9.80
2017-12-21T18:10:03.908Z,9.70
2017-12-21T18:12:35.823Z,9.70
2017-12-21T18:15:08.460Z,9.80
2017-12-21T18:17:40.395Z,9.70
2017-12-21T18:20:12.268Z,9.80
2017-12-21T18:22:44.205Z,9.80
2017-12-21T18:25:16.079Z,9.80
2017-12-21T18:27:47.983Z,9.80
2017-12-21T18:30:19.868Z,9.80
2017-12-21T18:32:52.560Z,9.80
2017-12-21T18:35:25.212Z,9.80
2017-12-21T18:37:57.131Z,9.80
2017-12-21T18:40:29.004Z,9.80
2017-12-21T18:43:00.935Z,9.80
2017-12-21T18:45:32.816Z,9.80
2017-12-21T18:48:04.981Z,9.80
2017-12-21T18:50:37.043Z,9.80
2017-12-21T18:53:08.939Z,9.90
2017-12-21T18:55:40.811Z,9.80
2017-12-21T18:58:12.697Z,9.80
2017-12-21T19:00:44.614Z,9.90
2017-12-21T19:03:16.543Z,9.90
2017-12-21T19:05:48.419Z,9.90
2017-12-21T19:08:20.327Z,9.90
2017-12-21T19:10:52.971Z,9.90
2017-12-21T19:13:24.888Z,9.90
2017-12-21T19:15:56.763Z,9.90
2017-12-21T19:18:28.663Z,9.90
2017-12-21T19:21:00.539Z,9.80
2017-12-21T19:23:33.242Z,9.80
2017-12-21T19:26:05.180Z,9.80
2017-12-21T19:28:37.111Z,9.90
2017-12-21T19:31:08.984Z,9.80
2017-12-21T19:33:40.923Z,9.80
2017-12-21T19:36:12.796Z,9.80
2017-12-21T19:38:44.717Z,9.80
2017-12-21T19:41:16.875Z,9.80
2017-12-21T19:43:48.796Z,9.90
2017-12-21T19:46:20.666Z,9.80
2017-12-21T19:48:53.389Z,9.90
2017-12-21T19:51:25.264Z,9.80
2017-12-21T19:53:57.191Z,9.90
2017-12-21T19:56:29.076Z,9.80
2017-12-21T19:59:00.959Z,9.80
2017-12-21T20:01:32.832Z,9.80
2017-12-21T20:04:04.764Z,9.80
2017-12-21T20:06:36.640Z,9.80
2017-12-21T20:09:08.527Z,9.80
2017-12-21T20:11:40.400Z,9.80
2017-12-21T20:14:13.088Z,9.80
2017-12-21T20:16:45.724Z,9.80
2017-12-21T20:19:17.635Z,9.80
2017-12-21T20:21:49.505Z,9.80
2017-12-21T20:24:21.427Z,9.70
2017-12-21T20:26:53.299Z,9.70
2017-12-21T20:29:25.954Z,9.70
2017-12-21T20:31:57.834Z,9.60
2017-12-21T20:34:30.523Z,9.60
2017-12-21T20:37:03.163Z,9.60
2017-12-21T20:39:35.072Z,9.50
2017-12-21T20:42:06.945Z,9.60
2017-12-21T20:44:38.864Z,9.60
2017-12-21T20:47:10.736Z,9.60
2017-12-21T20:49:43.408Z,9.60
2017-12-21T20:52:15.281Z,9.60
2017-12-21T20:54:47.972Z,9.60
2017-12-21T20:57:19.840Z,9.60
2017-12-21T20:59:51.749Z,9.60
2017-12-21T21:02:23.627Z,9.60
2017-12-21T21:04:55.551Z,9.70
2017-12-21T21:07:27.449Z,9.70
2017-12-21T21:09:59.639Z,9.70
2017-12-21T21:12:31.561Z,9.70
2017-12-21T21:15:03.444Z,9.70
2017-12-21T21:17:36.083Z,9.70
2017-12-21T21:20:16.750Z,9.70
2017-12-21T21:22:50.322Z,9.70
2017-12-21T21:25:22.248Z,9.70
2017-12-21T21:27:54.907Z,9.70
2017-12-21T21:30:26.850Z,9.70
2017-12-21T21:32:58.728Z,9.70
2017-12-21T21:35:30.654Z,9.70
2017-12-21T21:38:02.520Z,9.70
2017-12-21T21:40:34.435Z,9.70
2017-12-21T21:43:07.331Z,9.70
2017-12-21T21:45:39.252Z,9.70
2017-12-21T21:48:11.131Z,9.80
2017-12-21T21:50:43.044Z,9.70
2017-12-21T21:53:14.911Z,9.80
2017-12-21T21:55:46.866Z,9.80
2017-12-21T21:58:18.739Z,9.80
2017-12-21T22:00:50.671Z,9.80
2017-12-21T22:03:22.555Z,9.70
2017-12-21T22:05:54.488Z,9.80
2017-12-21T22:08:26.360Z,9.80
2017-12-21T22:10:58.293Z,9.80
2017-12-21T22:13:30.928Z,9.80
2017-12-21T22:16:02.848Z,9.80
2017-12-21T22:18:34.716Z,9.80
2017-12-21T22:21:06.631Z,9.80
2017-12-21T22:23:38.507Z,9.80
2017-12-21T22:26:10.426Z,9.80
2017-12-21T22:28:42.304Z,9.80
2017-12-21T22:31:14.207Z,9.80
2017-12-21T22:33:46.084Z,9.80
2017-12-21T22:36:18.003Z,9.80
2017-12-21T22:38:50.645Z,9.80
2017-12-21T22:41:22.548Z,9.70
2017-12-21T22:43:55.187Z,9.80
2017-12-21T22:46:27.139Z,9.80
2017-12-21T22:48:59.060Z,9.80
2017-12-21T22:51:31.741Z,9.80
2017-12-21T22:54:03.603Z,9.80
2017-12-21T22:56:35.511Z,9.80
2017-12-21T22:59:07.380Z,9.80
2017-12-21T23:01:39.302Z,9.80
2017-12-21T23:04:11.175Z,9.80
2017-12-21T23:06:43.079Z,9.80
2017-12-21T23:09:14.948Z,9.80
2017-12-21T23:11:47.599Z,9.80
2017-12-21T23:14:19.467Z,9.80
2017-12-21T23:16:51.359Z,9.80
2017-12-21T23:19:23.260Z,9.80
2017-12-21T23:21:55.183Z,9.80
2017-12-21T23:24:27.075Z,9.80
2017-12-21T23:26:58.987Z,9.80
2017-12-21T23:29:31.625Z,9.80
2017-12-21T23:32:03.532Z,9.80
2017-12-21T23:34:36.169Z,9.90
2017-12-21T23:37:08.091Z,9.80
2017-12-21T23:39:39.960Z,9.90
2017-12-21T23:42:11.851Z,9.90
2017-12-21T23:44:43.729Z,9.90
2017-12-21T23:47:15.660Z,9.90
2017-12-21T23:49:47.540Z,9.90
2017-12-21T23:52:19.440Z,9.90
2017-12-21T23:54:51.313Z,9.90
2017-12-21T23:57:23.244Z,9.90
2017-12-21T23:59:55.875Z,9.90
